Radiance Of The Seas — C6SE7 — position and weather

sailwx.info

Track history (hours):
 
Tides and Currents Weather Stations Pressure Air Temp Water Temp Dewpoint Dewpoint Depression Visibility Wind Speed Wind Dir Waves Ship Positions

Radiance Of The Seas

Operator: Royal Caribbean Cruises Ltd

Last reported at 2016-Dec-03 12:07 UTC. Time now 2016-Dec-03 19:40 UTC.
Position S 32°55' E 152°43'.

Type: Passenger vessel. MMSI: 311319000.

Date/timePositionNaut miles runAvg speedWind from/ knotsBaromVisibWave heightAir tempDewpointWater temp
2016-Dec-03 12:07S 32°55' E 152°43'1718.7
2016-Dec-03 11:11S 33°06' E 152°27'48 2.2
2016-Dec-02 13:32S 33°28' E 151°35'7 5.4
2016-Dec-02 12:15S 33°21' E 151°40'20 5.3
2016-Dec-02 08:29S 33°03' E 151°49'6 5.3
2016-Dec-02 07:18S 32°57' E 151°51'4 2.4
2016-Dec-02 05:33S 32°55' E 151°47'0 0.0
2016-Dec-02 04:33S 32°55' E 151°47'0 0.0
2016-Dec-02 03:33S 32°55' E 151°47'0 0.0
2016-Dec-02 02:33S 32°55' E 151°47'0 0.0
2016-Dec-02 01:27S 32°55' E 151°47'1 0.1
2016-Dec-01 20:33S 32°55' E 151°47'1110.6
2016-Dec-01 19:34S 32°58' E 151°60'1918.8
2016-Dec-01 18:33S 32°59' E 152°22'2020.2
2016-Dec-01 17:34S 33°01' E 152°46'  
2016-Nov-29 08:33S 36°19' E 174°59'1717.0
2016-Nov-29 07:33S 36°36' E 174°58'1413.9
2016-Nov-29 06:33S 36°48' E 174°49'4 0.4
2016-Nov-28 22:31S 36°51' E 174°46'0 0.0
2016-Nov-28 21:31S 36°51' E 174°46'0 0.0
2016-Nov-28 20:25S 36°51' E 174°46'0 0.0
2016-Nov-28 19:19S 36°51' E 174°46'0 0.0
2016-Nov-28 18:25S 36°51' E 174°46'0 0.0
2016-Nov-28 17:31S 36°51' E 174°46'0 0.0
2016-Nov-28 16:25S 36°51' E 174°46'0 0.0
2016-Nov-28 15:31S 36°51' E 174°46'0 0.0
2016-Nov-28 14:25S 36°51' E 174°46'1 1.4
2016-Nov-28 13:33S 36°50' E 174°48'1211.7
2016-Nov-28 12:33S 36°40' E 174°55'1716.5
2016-Nov-28 11:33S 36°29' E 175°10'8115.8
2016-Nov-28 06:25S 37°32' E 176°12'6 7.3
2016-Nov-28 05:33S 37°39' E 176°11'0 0.0
2016-Nov-28 04:25S 37°39' E 176°11'0 0.0
2016-Nov-28 03:19S 37°39' E 176°11'0 0.0
2016-Nov-28 02:25S 37°39' E 176°11'0 0.0
2016-Nov-28 01:25S 37°39' E 176°11'0 0.0
2016-Nov-28 00:31S 37°39' E 176°11'0 0.0
2016-Nov-27 23:28S 37°39' E 176°11'0 0.0
2016-Nov-27 22:31S 37°39' E 176°11'0 0.0
2016-Nov-27 21:22S 37°39' E 176°11'0 0.0
2016-Nov-27 20:25S 37°39' E 176°11'0 0.0
2016-Nov-27 19:31S 37°39' E 176°11'0 0.0
2016-Nov-27 18:31S 37°39' E 176°11'3 3.6
2016-Nov-27 17:33S 37°35' E 176°12'  
2016-Nov-24 06:26S 36°45' E 150°48'1618.5
2016-Nov-24 05:33S 36°59' E 150°40'2019.5
2016-Nov-24 04:33S 37°17' E 150°30'2020.0
2016-Nov-24 03:33S 37°36' E 150°20'2020.0
2016-Nov-24 02:33S 37°51' E 150°03'2020.4
2016-Nov-24 01:33S 38°02' E 149°42'2020.2
2016-Nov-24 00:33S 38°13' E 149°20'10120.0
2016-Nov-23 19:32S 39°01' E 147°26'1717.9
2016-Nov-23 18:33S 39°07' E 147°05'8 8.5
2016-Nov-23 17:34S 39°05' E 146°55'2323.2
2016-Nov-23 16:33S 39°24' E 146°36'2019.9
2016-Nov-23 15:33S 39°39' E 146°20'2323.4
2016-Nov-23 14:33S 39°24' E 145°57'  
Track history (hours):
 
Tides and Currents Weather Stations Pressure Air Temp Water Temp Dewpoint Dewpoint Depression Visibility Wind Speed Wind Dir Waves Ship Positions

Radiance Of The Seas

Operator: Royal Caribbean Cruises Ltd

Last reported at 2016-Dec-03 12:07 UTC. Time now 2016-Dec-03 19:40 UTC.
Position S 32°55' E 152°43'.

Type: Passenger vessel. MMSI: 311319000.

Date/timePositionNaut miles runAvg speedWind from/ knotsBaromVisibWave heightAir tempDewpointWater temp
2016-Dec-03 12:07S 32°55' E 152°43'1718.7
2016-Dec-03 11:11S 33°06' E 152°27'48 2.2
2016-Dec-02 13:32S 33°28' E 151°35'7 5.4
2016-Dec-02 12:15S 33°21' E 151°40'20 5.3
2016-Dec-02 08:29S 33°03' E 151°49'6 5.3
2016-Dec-02 07:18S 32°57' E 151°51'4 2.4
2016-Dec-02 05:33S 32°55' E 151°47'0 0.0
2016-Dec-02 04:33S 32°55' E 151°47'0 0.0
2016-Dec-02 03:33S 32°55' E 151°47'0 0.0
2016-Dec-02 02:33S 32°55' E 151°47'0 0.0
2016-Dec-02 01:27S 32°55' E 151°47'1 0.1
2016-Dec-01 20:33S 32°55' E 151°47'1110.6
2016-Dec-01 19:34S 32°58' E 151°60'1918.8
2016-Dec-01 18:33S 32°59' E 152°22'2020.2
2016-Dec-01 17:34S 33°01' E 152°46'  
2016-Nov-29 08:33S 36°19' E 174°59'1717.0
2016-Nov-29 07:33S 36°36' E 174°58'1413.9
2016-Nov-29 06:33S 36°48' E 174°49'4 0.4
2016-Nov-28 22:31S 36°51' E 174°46'0 0.0
2016-Nov-28 21:31S 36°51' E 174°46'0 0.0
2016-Nov-28 20:25S 36°51' E 174°46'0 0.0
2016-Nov-28 19:19S 36°51' E 174°46'0 0.0
2016-Nov-28 18:25S 36°51' E 174°46'0 0.0
2016-Nov-28 17:31S 36°51' E 174°46'0 0.0
2016-Nov-28 16:25S 36°51' E 174°46'0 0.0
2016-Nov-28 15:31S 36°51' E 174°46'0 0.0
2016-Nov-28 14:25S 36°51' E 174°46'1 1.4
2016-Nov-28 13:33S 36°50' E 174°48'1211.7
2016-Nov-28 12:33S 36°40' E 174°55'1716.5
2016-Nov-28 11:33S 36°29' E 175°10'8115.8
2016-Nov-28 06:25S 37°32' E 176°12'6 7.3
2016-Nov-28 05:33S 37°39' E 176°11'0 0.0
2016-Nov-28 04:25S 37°39' E 176°11'0 0.0
2016-Nov-28 03:19S 37°39' E 176°11'0 0.0
2016-Nov-28 02:25S 37°39' E 176°11'0 0.0
2016-Nov-28 01:25S 37°39' E 176°11'0 0.0
2016-Nov-28 00:31S 37°39' E 176°11'0 0.0
2016-Nov-27 23:28S 37°39' E 176°11'0 0.0
2016-Nov-27 22:31S 37°39' E 176°11'0 0.0
2016-Nov-27 21:22S 37°39' E 176°11'0 0.0
2016-Nov-27 20:25S 37°39' E 176°11'0 0.0
2016-Nov-27 19:31S 37°39' E 176°11'0 0.0
2016-Nov-27 18:31S 37°39' E 176°11'3 3.6
2016-Nov-27 17:33S 37°35' E 176°12'  
2016-Nov-24 06:26S 36°45' E 150°48'1618.5
2016-Nov-24 05:33S 36°59' E 150°40'2019.5
2016-Nov-24 04:33S 37°17' E 150°30'2020.0
2016-Nov-24 03:33S 37°36' E 150°20'2020.0
2016-Nov-24 02:33S 37°51' E 150°03'2020.4
2016-Nov-24 01:33S 38°02' E 149°42'2020.2
2016-Nov-24 00:33S 38°13' E 149°20'10120.0
2016-Nov-23 19:32S 39°01' E 147°26'1717.9
2016-Nov-23 18:33S 39°07' E 147°05'8 8.5
2016-Nov-23 17:34S 39°05' E 146°55'2323.2
2016-Nov-23 16:33S 39°24' E 146°36'2019.9
2016-Nov-23 15:33S 39°39' E 146°20'2323.4
2016-Nov-23 14:33S 39°24' E 145°57'  

Dump ship's entire track history